sensor_id;sensor_type;location;lat;lon;timestamp;P1;durP1;ratioP1;P2;durP2;ratioP2
16804;SDS011;8520;50.102;20.010;2023-09-19T00:01:02;42.90;;;40.20;;
16804;SDS011;8520;50.102;20.010;2023-09-19T00:03:33;42.70;;;40.00;;
16804;SDS011;8520;50.102;20.010;2023-09-19T00:06:04;41.92;;;39.30;;
16804;SDS011;8520;50.102;20.010;2023-09-19T00:08:34;42.15;;;39.67;;
16804;SDS011;8520;50.102;20.010;2023-09-19T00:11:02;42.97;;;40.03;;
16804;SDS011;8520;50.102;20.010;2023-09-19T00:13:30;42.88;;;40.45;;
16804;SDS011;8520;50.102;20.010;2023-09-19T00:15:58;43.30;;;40.70;;
16804;SDS011;8520;50.102;20.010;2023-09-19T00:18:28;42.58;;;40.08;;
16804;SDS011;8520;50.102;20.010;2023-09-19T00:20:58;43.50;;;41.03;;
16804;SDS011;8520;50.102;20.010;2023-09-19T00:23:26;44.88;;;42.17;;
16804;SDS011;8520;50.102;20.010;2023-09-19T00:25:54;44.72;;;42.03;;
16804;SDS011;8520;50.102;20.010;2023-09-19T00:28:25;45.53;;;42.38;;
16804;SDS011;8520;50.102;20.010;2023-09-19T00:30:54;44.33;;;41.90;;
16804;SDS011;8520;50.102;20.010;2023-09-19T00:33:22;44.40;;;41.80;;
16804;SDS011;8520;50.102;20.010;2023-09-19T00:35:52;44.45;;;41.75;;
16804;SDS011;8520;50.102;20.010;2023-09-19T00:38:21;44.45;;;41.95;;
16804;SDS011;8520;50.102;20.010;2023-09-19T00:40:54;45.45;;;42.35;;
16804;SDS011;8520;50.102;20.010;2023-09-19T00:43:26;45.00;;;42.40;;
16804;SDS011;8520;50.102;20.010;2023-09-19T00:45:55;44.30;;;41.72;;
16804;SDS011;8520;50.102;20.010;2023-09-19T00:48:24;45.22;;;42.55;;
16804;SDS011;8520;50.102;20.010;2023-09-19T00:50:55;43.17;;;40.72;;
16804;SDS011;8520;50.102;20.010;2023-09-19T00:53:24;44.63;;;42.15;;
16804;SDS011;8520;50.102;20.010;2023-09-19T00:55:54;44.13;;;41.63;;
16804;SDS011;8520;50.102;20.010;2023-09-19T00:58:22;45.97;;;43.08;;
16804;SDS011;8520;50.102;20.010;2023-09-19T01:00:51;48.13;;;45.03;;
16804;SDS011;8520;50.102;20.010;2023-09-19T01:03:20;46.47;;;43.60;;
16804;SDS011;8520;50.102;20.010;2023-09-19T01:05:48;47.42;;;44.50;;
16804;SDS011;8520;50.102;20.010;2023-09-19T01:08:19;48.03;;;44.70;;
16804;SDS011;8520;50.102;20.010;2023-09-19T01:10:50;48.88;;;45.70;;
16804;SDS011;8520;50.102;20.010;2023-09-19T01:13:21;49.50;;;46.03;;
16804;SDS011;8520;50.102;20.010;2023-09-19T01:15:52;50.60;;;47.33;;
16804;SDS011;8520;50.102;20.010;2023-09-19T01:18:26;51.85;;;48.85;;
16804;SDS011;8520;50.102;20.010;2023-09-19T01:20:57;52.95;;;49.70;;
16804;SDS011;8520;50.102;20.010;2023-09-19T01:23:35;54.40;;;51.20;;
16804;SDS011;8520;50.102;20.010;2023-09-19T01:26:10;56.28;;;52.88;;
16804;SDS011;8520;50.102;20.010;2023-09-19T01:28:51;61.15;;;57.17;;
16804;SDS011;8520;50.102;20.010;2023-09-19T01:31:22;65.75;;;61.75;;
16804;SDS011;8520;50.102;20.010;2023-09-19T01:33:59;66.97;;;63.03;;
16804;SDS011;8520;50.102;20.010;2023-09-19T01:36:28;72.82;;;68.30;;
16804;SDS011;8520;50.102;20.010;2023-09-19T01:38:57;75.53;;;70.97;;
16804;SDS011;8520;50.102;20.010;2023-09-19T01:41:41;79.80;;;74.85;;
16804;SDS011;8520;50.102;20.010;2023-09-19T01:44:15;81.82;;;76.97;;
16804;SDS011;8520;50.102;20.010;2023-09-19T01:46:47;82.45;;;77.45;;
16804;SDS011;8520;50.102;20.010;2023-09-19T01:49:22;86.15;;;80.78;;
16804;SDS011;8520;50.102;20.010;2023-09-19T01:51:54;86.07;;;80.90;;
16804;SDS011;8520;50.102;20.010;2023-09-19T01:54:26;88.88;;;83.35;;
16804;SDS011;8520;50.102;20.010;2023-09-19T01:56:57;92.50;;;86.80;;
16804;SDS011;8520;50.102;20.010;2023-09-19T01:59:28;93.85;;;88.03;;
16804;SDS011;8520;50.102;20.010;2023-09-19T02:01:59;94.03;;;88.43;;
16804;SDS011;8520;50.102;20.010;2023-09-19T02:04:29;97.07;;;91.35;;
16804;SDS011;8520;50.102;20.010;2023-09-19T02:06:57;97.43;;;91.70;;
16804;SDS011;8520;50.102;20.010;2023-09-19T02:09:25;100.82;;;94.80;;
16804;SDS011;8520;50.102;20.010;2023-09-19T02:11:54;102.88;;;96.55;;
16804;SDS011;8520;50.102;20.010;2023-09-19T02:14:22;104.45;;;97.95;;
16804;SDS011;8520;50.102;20.010;2023-09-19T02:16:50;104.93;;;98.70;;
16804;SDS011;8520;50.102;20.010;2023-09-19T02:19:19;106.63;;;100.43;;
16804;SDS011;8520;50.102;20.010;2023-09-19T02:21:48;107.70;;;101.05;;
16804;SDS011;8520;50.102;20.010;2023-09-19T02:24:16;108.57;;;102.05;;
16804;SDS011;8520;50.102;20.010;2023-09-19T02:26:45;110.13;;;103.43;;
16804;SDS011;8520;50.102;20.010;2023-09-19T02:29:14;111.05;;;104.32;;
16804;SDS011;8520;50.102;20.010;2023-09-19T02:31:42;112.70;;;105.80;;
16804;SDS011;8520;50.102;20.010;2023-09-19T02:34:10;113.20;;;106.20;;
16804;SDS011;8520;50.102;20.010;2023-09-19T02:36:39;112.85;;;105.82;;
16804;SDS011;8520;50.102;20.010;2023-09-19T02:39:07;112.38;;;105.65;;
16804;SDS011;8520;50.102;20.010;2023-09-19T02:41:36;113.88;;;106.85;;
16804;SDS011;8520;50.102;20.010;2023-09-19T02:44:04;114.47;;;107.28;;
16804;SDS011;8520;50.102;20.010;2023-09-19T02:46:34;115.47;;;108.18;;
16804;SDS011;8520;50.102;20.010;2023-09-19T02:49:03;116.65;;;109.18;;
16804;SDS011;8520;50.102;20.010;2023-09-19T02:51:31;115.20;;;107.80;;
16804;SDS011;8520;50.102;20.010;2023-09-19T02:54:01;115.80;;;108.78;;
16804;SDS011;8520;50.102;20.010;2023-09-19T02:56:30;117.30;;;109.82;;
16804;SDS011;8520;50.102;20.010;2023-09-19T02:58:58;119.47;;;111.85;;
16804;SDS011;8520;50.102;20.010;2023-09-19T03:01:27;117.85;;;110.38;;
16804;SDS011;8520;50.102;20.010;2023-09-19T03:03:56;118.47;;;110.88;;
16804;SDS011;8520;50.102;20.010;2023-09-19T03:06:23;118.45;;;110.95;;
16804;SDS011;8520;50.102;20.010;2023-09-19T03:08:51;118.57;;;110.90;;
16804;SDS011;8520;50.102;20.010;2023-09-19T03:11:22;118.95;;;111.40;;
16804;SDS011;8520;50.102;20.010;2023-09-19T03:13:55;115.97;;;108.57;;
16804;SDS011;8520;50.102;20.010;2023-09-19T03:16:25;115.50;;;108.25;;
16804;SDS011;8520;50.102;20.010;2023-09-19T03:18:57;117.82;;;110.32;;
16804;SDS011;8520;50.102;20.010;2023-09-19T03:21:29;117.70;;;110.05;;
16804;SDS011;8520;50.102;20.010;2023-09-19T03:23:57;118.85;;;111.25;;
16804;SDS011;8520;50.102;20.010;2023-09-19T03:26:26;117.60;;;110.20;;
16804;SDS011;8520;50.102;20.010;2023-09-19T03:28:54;116.32;;;108.90;;
16804;SDS011;8520;50.102;20.010;2023-09-19T03:31:22;116.50;;;109.40;;
16804;SDS011;8520;50.102;20.010;2023-09-19T03:33:50;117.22;;;109.72;;
16804;SDS011;8520;50.102;20.010;2023-09-19T03:36:18;119.45;;;111.75;;
16804;SDS011;8520;50.102;20.010;2023-09-19T03:38:46;122.85;;;114.82;;
16804;SDS011;8520;50.102;20.010;2023-09-19T03:41:14;150.02;;;139.35;;
16804;SDS011;8520;50.102;20.010;2023-09-19T03:43:47;124.53;;;116.32;;
16804;SDS011;8520;50.102;20.010;2023-09-19T03:46:16;120.72;;;113.13;;
16804;SDS011;8520;50.102;20.010;2023-09-19T03:48:44;121.32;;;113.57;;
16804;SDS011;8520;50.102;20.010;2023-09-19T03:51:13;118.68;;;111.05;;
16804;SDS011;8520;50.102;20.010;2023-09-19T03:53:40;115.72;;;108.50;;
16804;SDS011;8520;50.102;20.010;2023-09-19T03:56:09;114.40;;;107.28;;
16804;SDS011;8520;50.102;20.010;2023-09-19T03:58:37;113.85;;;106.72;;
16804;SDS011;8520;50.102;20.010;2023-09-19T04:01:08;113.38;;;106.22;;
16804;SDS011;8520;50.102;20.010;2023-09-19T04:03:36;112.78;;;105.88;;
16804;SDS011;8520;50.102;20.010;2023-09-19T04:06:15;111.13;;;104.35;;
16804;SDS011;8520;50.102;20.010;2023-09-19T04:08:43;113.35;;;106.40;;
16804;SDS011;8520;50.102;20.010;2023-09-19T04:11:12;110.85;;;104.05;;
16804;SDS011;8520;50.102;20.010;2023-09-19T04:13:40;109.95;;;103.38;;
16804;SDS011;8520;50.102;20.010;2023-09-19T04:16:10;108.93;;;102.47;;
16804;SDS011;8520;50.102;20.010;2023-09-19T04:18:39;112.38;;;105.57;;
16804;SDS011;8520;50.102;20.010;2023-09-19T04:21:08;110.68;;;103.95;;
16804;SDS011;8520;50.102;20.010;2023-09-19T04:23:36;111.22;;;104.43;;
16804;SDS011;8520;50.102;20.010;2023-09-19T04:26:04;108.25;;;101.75;;
16804;SDS011;8520;50.102;20.010;2023-09-19T04:28:33;109.65;;;103.03;;
16804;SDS011;8520;50.102;20.010;2023-09-19T04:31:05;110.05;;;103.38;;
16804;SDS011;8520;50.102;20.010;2023-09-19T04:33:36;107.82;;;101.43;;
16804;SDS011;8520;50.102;20.010;2023-09-19T04:36:05;109.25;;;102.60;;
16804;SDS011;8520;50.102;20.010;2023-09-19T04:38:54;110.80;;;103.82;;
16804;SDS011;8520;50.102;20.010;2023-09-19T04:41:22;109.60;;;102.88;;
16804;SDS011;8520;50.102;20.010;2023-09-19T04:43:51;108.10;;;101.47;;
16804;SDS011;8520;50.102;20.010;2023-09-19T04:46:19;110.80;;;104.07;;
16804;SDS011;8520;50.102;20.010;2023-09-19T04:48:48;109.25;;;102.70;;
16804;SDS011;8520;50.102;20.010;2023-09-19T04:51:16;110.28;;;103.53;;
16804;SDS011;8520;50.102;20.010;2023-09-19T04:53:45;110.35;;;103.55;;
16804;SDS011;8520;50.102;20.010;2023-09-19T04:56:14;110.28;;;103.65;;
16804;SDS011;8520;50.102;20.010;2023-09-19T04:58:42;110.50;;;103.57;;
16804;SDS011;8520;50.102;20.010;2023-09-19T05:01:11;109.63;;;102.93;;
16804;SDS011;8520;50.102;20.010;2023-09-19T05:03:42;111.10;;;104.30;;
16804;SDS011;8520;50.102;20.010;2023-09-19T05:06:12;112.57;;;105.50;;
16804;SDS011;8520;50.102;20.010;2023-09-19T05:08:40;114.10;;;107.13;;
16804;SDS011;8520;50.102;20.010;2023-09-19T05:11:08;117.07;;;109.57;;
16804;SDS011;8520;50.102;20.010;2023-09-19T05:13:36;115.93;;;108.43;;
16804;SDS011;8520;50.102;20.010;2023-09-19T05:16:04;120.70;;;111.97;;
16804;SDS011;8520;50.102;20.010;2023-09-19T05:18:33;119.22;;;111.53;;
16804;SDS011;8520;50.102;20.010;2023-09-19T05:21:01;119.05;;;111.45;;
16804;SDS011;8520;50.102;20.010;2023-09-19T05:23:31;117.15;;;109.85;;
16804;SDS011;8520;50.102;20.010;2023-09-19T05:25:59;120.85;;;112.72;;
16804;SDS011;8520;50.102;20.010;2023-09-19T05:28:27;118.78;;;111.38;;
16804;SDS011;8520;50.102;20.010;2023-09-19T05:30:56;118.25;;;110.68;;
16804;SDS011;8520;50.102;20.010;2023-09-19T05:33:24;117.78;;;109.82;;
16804;SDS011;8520;50.102;20.010;2023-09-19T05:35:54;116.20;;;108.70;;
16804;SDS011;8520;50.102;20.010;2023-09-19T05:38:22;116.20;;;108.93;;
16804;SDS011;8520;50.102;20.010;2023-09-19T05:40:53;112.40;;;105.50;;
16804;SDS011;8520;50.102;20.010;2023-09-19T05:43:21;112.85;;;105.97;;
16804;SDS011;8520;50.102;20.010;2023-09-19T05:45:49;109.53;;;102.82;;
16804;SDS011;8520;50.102;20.010;2023-09-19T05:48:19;111.15;;;104.30;;
16804;SDS011;8520;50.102;20.010;2023-09-19T05:50:47;109.97;;;103.28;;
16804;SDS011;8520;50.102;20.010;2023-09-19T05:53:16;112.35;;;105.35;;
16804;SDS011;8520;50.102;20.010;2023-09-19T05:55:45;111.10;;;104.35;;
16804;SDS011;8520;50.102;20.010;2023-09-19T05:58:14;112.22;;;105.22;;
16804;SDS011;8520;50.102;20.010;2023-09-19T06:00:44;111.47;;;104.68;;
16804;SDS011;8520;50.102;20.010;2023-09-19T06:03:14;112.47;;;105.55;;
16804;SDS011;8520;50.102;20.010;2023-09-19T06:05:42;114.75;;;107.65;;
16804;SDS011;8520;50.102;20.010;2023-09-19T06:08:10;115.63;;;108.32;;
16804;SDS011;8520;50.102;20.010;2023-09-19T06:10:38;118.50;;;110.80;;
16804;SDS011;8520;50.102;20.010;2023-09-19T06:13:07;123.28;;;115.38;;
16804;SDS011;8520;50.102;20.010;2023-09-19T06:15:38;127.05;;;118.75;;
16804;SDS011;8520;50.102;20.010;2023-09-19T06:18:09;129.30;;;120.88;;
16804;SDS011;8520;50.102;20.010;2023-09-19T06:20:40;134.60;;;125.75;;
16804;SDS011;8520;50.102;20.010;2023-09-19T06:23:11;137.43;;;128.13;;
16804;SDS011;8520;50.102;20.010;2023-09-19T06:25:39;140.73;;;131.13;;
16804;SDS011;8520;50.102;20.010;2023-09-19T06:28:10;143.15;;;133.48;;
16804;SDS011;8520;50.102;20.010;2023-09-19T06:30:40;148.50;;;138.10;;
16804;SDS011;8520;50.102;20.010;2023-09-19T06:33:09;150.18;;;139.95;;
16804;SDS011;8520;50.102;20.010;2023-09-19T06:35:42;151.45;;;140.70;;
16804;SDS011;8520;50.102;20.010;2023-09-19T06:38:14;154.38;;;143.38;;
16804;SDS011;8520;50.102;20.010;2023-09-19T06:40:42;154.13;;;143.40;;
16804;SDS011;8520;50.102;20.010;2023-09-19T06:43:10;158.07;;;146.77;;
16804;SDS011;8520;50.102;20.010;2023-09-19T06:45:38;158.48;;;147.18;;
16804;SDS011;8520;50.102;20.010;2023-09-19T06:48:09;158.98;;;147.90;;
16804;SDS011;8520;50.102;20.010;2023-09-19T06:50:39;160.80;;;149.02;;
16804;SDS011;8520;50.102;20.010;2023-09-19T06:53:07;160.55;;;148.98;;
16804;SDS011;8520;50.102;20.010;2023-09-19T06:55:36;159.32;;;148.00;;
16804;SDS011;8520;50.102;20.010;2023-09-19T06:58:04;159.45;;;147.95;;
16804;SDS011;8520;50.102;20.010;2023-09-19T07:00:33;160.45;;;149.05;;
16804;SDS011;8520;50.102;20.010;2023-09-19T07:03:03;156.20;;;145.15;;
16804;SDS011;8520;50.102;20.010;2023-09-19T07:05:38;157.57;;;146.38;;
16804;SDS011;8520;50.102;20.010;2023-09-19T07:08:06;158.70;;;147.40;;
16804;SDS011;8520;50.102;20.010;2023-09-19T07:10:36;156.75;;;145.55;;
16804;SDS011;8520;50.102;20.010;2023-09-19T07:13:04;161.23;;;149.32;;
16804;SDS011;8520;50.102;20.010;2023-09-19T07:15:33;157.68;;;146.52;;
16804;SDS011;8520;50.102;20.010;2023-09-19T07:18:02;159.65;;;148.43;;
16804;SDS011;8520;50.102;20.010;2023-09-19T07:20:31;159.07;;;148.00;;
16804;SDS011;8520;50.102;20.010;2023-09-19T07:23:00;160.70;;;149.35;;
16804;SDS011;8520;50.102;20.010;2023-09-19T07:25:29;160.77;;;149.35;;
16804;SDS011;8520;50.102;20.010;2023-09-19T07:27:57;163.88;;;152.27;;
16804;SDS011;8520;50.102;20.010;2023-09-19T07:30:27;164.77;;;152.85;;
16804;SDS011;8520;50.102;20.010;2023-09-19T07:32:56;162.35;;;150.75;;
16804;SDS011;8520;50.102;20.010;2023-09-19T07:35:24;161.13;;;149.68;;
16804;SDS011;8520;50.102;20.010;2023-09-19T07:37:52;162.73;;;151.05;;
16804;SDS011;8520;50.102;20.010;2023-09-19T07:40:22;161.45;;;149.95;;
16804;SDS011;8520;50.102;20.010;2023-09-19T07:42:51;159.52;;;148.00;;
16804;SDS011;8520;50.102;20.010;2023-09-19T07:45:19;158.00;;;146.90;;
16804;SDS011;8520;50.102;20.010;2023-09-19T07:47:47;158.38;;;147.32;;
16804;SDS011;8520;50.102;20.010;2023-09-19T07:50:16;154.00;;;143.30;;
16804;SDS011;8520;50.102;20.010;2023-09-19T07:52:45;152.38;;;141.77;;
16804;SDS011;8520;50.102;20.010;2023-09-19T07:55:14;151.15;;;140.80;;
16804;SDS011;8520;50.102;20.010;2023-09-19T07:57:45;149.63;;;139.32;;
16804;SDS011;8520;50.102;20.010;2023-09-19T08:00:14;149.70;;;139.43;;
16804;SDS011;8520;50.102;20.010;2023-09-19T08:02:42;151.02;;;140.52;;
16804;SDS011;8520;50.102;20.010;2023-09-19T08:05:12;150.90;;;140.55;;
16804;SDS011;8520;50.102;20.010;2023-09-19T08:07:43;147.30;;;137.35;;
16804;SDS011;8520;50.102;20.010;2023-09-19T08:10:12;148.23;;;138.10;;
16804;SDS011;8520;50.102;20.010;2023-09-19T08:12:42;148.20;;;138.13;;
16804;SDS011;8520;50.102;20.010;2023-09-19T08:15:15;145.70;;;135.82;;
16804;SDS011;8520;50.102;20.010;2023-09-19T08:17:43;147.88;;;137.68;;
16804;SDS011;8520;50.102;20.010;2023-09-19T08:20:12;148.27;;;138.07;;
16804;SDS011;8520;50.102;20.010;2023-09-19T08:22:43;146.70;;;136.40;;
16804;SDS011;8520;50.102;20.010;2023-09-19T08:25:12;145.60;;;135.63;;
16804;SDS011;8520;50.102;20.010;2023-09-19T08:27:40;148.85;;;138.57;;
16804;SDS011;8520;50.102;20.010;2023-09-19T08:30:10;149.63;;;139.40;;
16804;SDS011;8520;50.102;20.010;2023-09-19T08:32:40;151.68;;;141.18;;
16804;SDS011;8520;50.102;20.010;2023-09-19T08:35:09;150.93;;;140.32;;
16804;SDS011;8520;50.102;20.010;2023-09-19T08:37:37;150.57;;;140.23;;
16804;SDS011;8520;50.102;20.010;2023-09-19T08:40:05;150.27;;;140.07;;
16804;SDS011;8520;50.102;20.010;2023-09-19T08:42:48;153.15;;;142.55;;
16804;SDS011;8520;50.102;20.010;2023-09-19T08:45:17;152.27;;;141.77;;
16804;SDS011;8520;50.102;20.010;2023-09-19T08:47:47;152.35;;;141.70;;
16804;SDS011;8520;50.102;20.010;2023-09-19T08:50:19;151.00;;;140.35;;
16804;SDS011;8520;50.102;20.010;2023-09-19T08:52:49;151.07;;;140.48;;
16804;SDS011;8520;50.102;20.010;2023-09-19T08:55:20;150.98;;;140.63;;
16804;SDS011;8520;50.102;20.010;2023-09-19T08:57:56;150.10;;;139.63;;
16804;SDS011;8520;50.102;20.010;2023-09-19T09:00:27;151.15;;;140.60;;
16804;SDS011;8520;50.102;20.010;2023-09-19T09:02:57;150.27;;;139.93;;
16804;SDS011;8520;50.102;20.010;2023-09-19T09:05:26;151.88;;;141.23;;
16804;SDS011;8520;50.102;20.010;2023-09-19T09:07:55;151.48;;;140.93;;
16804;SDS011;8520;50.102;20.010;2023-09-19T09:10:23;151.13;;;140.73;;
16804;SDS011;8520;50.102;20.010;2023-09-19T09:12:51;151.73;;;141.05;;
16804;SDS011;8520;50.102;20.010;2023-09-19T09:15:20;152.25;;;141.65;;
16804;SDS011;8520;50.102;20.010;2023-09-19T09:17:50;152.38;;;141.77;;
16804;SDS011;8520;50.102;20.010;2023-09-19T09:20:21;154.27;;;143.40;;
16804;SDS011;8520;50.102;20.010;2023-09-19T09:22:52;155.43;;;144.23;;
16804;SDS011;8520;50.102;20.010;2023-09-19T09:25:21;155.27;;;144.18;;
16804;SDS011;8520;50.102;20.010;2023-09-19T09:28:00;157.70;;;146.48;;
16804;SDS011;8520;50.102;20.010;2023-09-19T09:30:35;158.60;;;147.20;;
16804;SDS011;8520;50.102;20.010;2023-09-19T09:33:10;160.02;;;148.43;;
16804;SDS011;8520;50.102;20.010;2023-09-19T09:35:48;161.75;;;149.75;;
16804;SDS011;8520;50.102;20.010;2023-09-19T09:38:22;160.45;;;148.82;;
16804;SDS011;8520;50.102;20.010;2023-09-19T09:40:54;161.30;;;149.85;;
16804;SDS011;8520;50.102;20.010;2023-09-19T09:43:29;161.93;;;150.27;;
16804;SDS011;8520;50.102;20.010;2023-09-19T09:46:08;161.07;;;149.30;;
16804;SDS011;8520;50.102;20.010;2023-09-19T09:48:58;162.23;;;150.55;;
16804;SDS011;8520;50.102;20.010;2023-09-19T09:51:48;158.65;;;147.07;;
16804;SDS011;8520;50.102;20.010;2023-09-19T09:54:24;153.88;;;142.98;;
16804;SDS011;8520;50.102;20.010;2023-09-19T09:56:54;157.23;;;146.07;;
16804;SDS011;8520;50.102;20.010;2023-09-19T09:59:44;155.00;;;143.90;;
16804;SDS011;8520;50.102;20.010;2023-09-19T10:02:14;154.32;;;143.40;;
16804;SDS011;8520;50.102;20.010;2023-09-19T10:04:47;151.98;;;141.30;;
16804;SDS011;8520;50.102;20.010;2023-09-19T10:07:31;148.07;;;137.85;;
16804;SDS011;8520;50.102;20.010;2023-09-19T10:10:10;148.07;;;137.90;;
16804;SDS011;8520;50.102;20.010;2023-09-19T10:12:43;146.38;;;136.18;;
16804;SDS011;8520;50.102;20.010;2023-09-19T10:15:15;143.68;;;133.80;;
16804;SDS011;8520;50.102;20.010;2023-09-19T10:17:43;144.23;;;134.35;;
16804;SDS011;8520;50.102;20.010;2023-09-19T10:20:13;144.20;;;134.20;;
16804;SDS011;8520;50.102;20.010;2023-09-19T10:23:05;141.77;;;132.07;;
16804;SDS011;8520;50.102;20.010;2023-09-19T10:25:36;140.40;;;131.00;;
16804;SDS011;8520;50.102;20.010;2023-09-19T10:28:05;138.35;;;128.95;;
16804;SDS011;8520;50.102;20.010;2023-09-19T10:30:40;137.25;;;128.07;;
16804;SDS011;8520;50.102;20.010;2023-09-19T10:33:12;137.60;;;128.38;;
16804;SDS011;8520;50.102;20.010;2023-09-19T10:35:42;136.07;;;127.13;;
16804;SDS011;8520;50.102;20.010;2023-09-19T10:38:13;136.25;;;127.28;;
16804;SDS011;8520;50.102;20.010;2023-09-19T10:40:45;136.68;;;127.68;;
16804;SDS011;8520;50.102;20.010;2023-09-19T10:43:17;134.57;;;125.70;;
16804;SDS011;8520;50.102;20.010;2023-09-19T10:45:46;133.35;;;124.65;;
16804;SDS011;8520;50.102;20.010;2023-09-19T10:48:16;133.55;;;124.90;;
16804;SDS011;8520;50.102;20.010;2023-09-19T10:50:48;134.30;;;125.50;;
16804;SDS011;8520;50.102;20.010;2023-09-19T10:53:19;135.52;;;126.43;;
16804;SDS011;8520;50.102;20.010;2023-09-19T10:55:50;136.20;;;127.20;;
16804;SDS011;8520;50.102;20.010;2023-09-19T10:58:24;136.25;;;127.13;;
16804;SDS011;8520;50.102;20.010;2023-09-19T11:00:53;134.85;;;125.97;;
16804;SDS011;8520;50.102;20.010;2023-09-19T11:03:22;135.73;;;126.68;;
16804;SDS011;8520;50.102;20.010;2023-09-19T11:06:01;137.13;;;127.90;;
16804;SDS011;8520;50.102;20.010;2023-09-19T11:16:43;137.30;;;128.10;;
16804;SDS011;8520;50.102;20.010;2023-09-19T11:22:15;139.00;;;129.68;;
16804;SDS011;8520;50.102;20.010;2023-09-19T11:24:43;137.57;;;128.38;;
16804;SDS011;8520;50.102;20.010;2023-09-19T11:27:13;137.85;;;128.75;;
16804;SDS011;8520;50.102;20.010;2023-09-19T11:29:44;138.20;;;128.85;;
16804;SDS011;8520;50.102;20.010;2023-09-19T11:32:13;138.73;;;129.23;;
16804;SDS011;8520;50.102;20.010;2023-09-19T11:34:47;137.10;;;127.95;;
16804;SDS011;8520;50.102;20.010;2023-09-19T11:40:08;136.48;;;127.45;;
16804;SDS011;8520;50.102;20.010;2023-09-19T11:42:43;136.07;;;126.88;;
16804;SDS011;8520;50.102;20.010;2023-09-19T11:48:00;138.98;;;129.48;;
16804;SDS011;8520;50.102;20.010;2023-09-19T11:50:28;138.38;;;129.32;;
16804;SDS011;8520;50.102;20.010;2023-09-19T11:52:59;138.93;;;129.27;;
16804;SDS011;8520;50.102;20.010;2023-09-19T11:55:28;138.68;;;129.27;;
16804;SDS011;8520;50.102;20.010;2023-09-19T11:57:57;138.23;;;128.98;;
16804;SDS011;8520;50.102;20.010;2023-09-19T12:00:25;138.82;;;129.45;;
16804;SDS011;8520;50.102;20.010;2023-09-19T12:02:54;138.68;;;129.38;;
16804;SDS011;8520;50.102;20.010;2023-09-19T12:05:29;138.77;;;129.35;;
16804;SDS011;8520;50.102;20.010;2023-09-19T12:08:00;137.57;;;128.27;;
16804;SDS011;8520;50.102;20.010;2023-09-19T12:10:32;138.98;;;129.57;;
16804;SDS011;8520;50.102;20.010;2023-09-19T12:13:00;136.20;;;127.03;;
16804;SDS011;8520;50.102;20.010;2023-09-19T12:15:29;139.65;;;130.05;;
16804;SDS011;8520;50.102;20.010;2023-09-19T12:18:01;141.98;;;132.30;;
16804;SDS011;8520;50.102;20.010;2023-09-19T12:20:43;140.27;;;130.73;;
16804;SDS011;8520;50.102;20.010;2023-09-19T12:23:16;138.40;;;129.18;;
16804;SDS011;8520;50.102;20.010;2023-09-19T12:25:44;139.70;;;130.32;;
16804;SDS011;8520;50.102;20.010;2023-09-19T12:28:14;140.65;;;131.05;;
16804;SDS011;8520;50.102;20.010;2023-09-19T12:30:43;138.07;;;128.70;;
16804;SDS011;8520;50.102;20.010;2023-09-19T12:33:16;138.93;;;129.43;;
16804;SDS011;8520;50.102;20.010;2023-09-19T12:35:47;140.82;;;131.02;;
16804;SDS011;8520;50.102;20.010;2023-09-19T12:38:22;140.55;;;131.13;;
16804;SDS011;8520;50.102;20.010;2023-09-19T12:40:51;140.80;;;131.50;;
16804;SDS011;8520;50.102;20.010;2023-09-19T12:43:19;140.45;;;131.02;;
16804;SDS011;8520;50.102;20.010;2023-09-19T12:45:48;140.13;;;130.48;;
16804;SDS011;8520;50.102;20.010;2023-09-19T12:48:22;141.63;;;131.90;;
16804;SDS011;8520;50.102;20.010;2023-09-19T12:51:02;142.77;;;133.02;;
16804;SDS011;8520;50.102;20.010;2023-09-19T12:53:33;142.40;;;132.80;;
16804;SDS011;8520;50.102;20.010;2023-09-19T12:56:05;141.52;;;132.02;;
16804;SDS011;8520;50.102;20.010;2023-09-19T12:58:36;142.50;;;132.90;;
16804;SDS011;8520;50.102;20.010;2023-09-19T13:01:16;142.75;;;133.05;;
16804;SDS011;8520;50.102;20.010;2023-09-19T13:03:44;141.35;;;131.68;;
16804;SDS011;8520;50.102;20.010;2023-09-19T13:06:14;142.88;;;133.27;;
16804;SDS011;8520;50.102;20.010;2023-09-19T13:08:43;142.77;;;133.15;;
16804;SDS011;8520;50.102;20.010;2023-09-19T13:11:16;143.95;;;134.32;;
16804;SDS011;8520;50.102;20.010;2023-09-19T13:13:48;142.70;;;133.05;;
16804;SDS011;8520;50.102;20.010;2023-09-19T13:16:20;142.98;;;133.20;;
16804;SDS011;8520;50.102;20.010;2023-09-19T13:18:50;142.38;;;132.88;;
16804;SDS011;8520;50.102;20.010;2023-09-19T13:21:30;142.70;;;132.90;;
16804;SDS011;8520;50.102;20.010;2023-09-19T13:24:19;140.23;;;130.70;;
16804;SDS011;8520;50.102;20.010;2023-09-19T13:26:48;139.50;;;130.20;;
16804;SDS011;8520;50.102;20.010;2023-09-19T13:29:16;140.05;;;130.55;;
16804;SDS011;8520;50.102;20.010;2023-09-19T13:31:45;137.82;;;128.68;;
16804;SDS011;8520;50.102;20.010;2023-09-19T13:34:14;134.95;;;125.95;;
16804;SDS011;8520;50.102;20.010;2023-09-19T13:36:44;133.68;;;124.97;;
16804;SDS011;8520;50.102;20.010;2023-09-19T13:39:14;132.68;;;123.97;;
16804;SDS011;8520;50.102;20.010;2023-09-19T13:41:43;130.98;;;122.40;;
16804;SDS011;8520;50.102;20.010;2023-09-19T13:44:11;129.13;;;120.60;;
16804;SDS011;8520;50.102;20.010;2023-09-19T13:46:40;126.38;;;118.28;;
16804;SDS011;8520;50.102;20.010;2023-09-19T13:49:13;124.97;;;116.88;;
16804;SDS011;8520;50.102;20.010;2023-09-19T13:51:41;122.25;;;114.47;;
16804;SDS011;8520;50.102;20.010;2023-09-19T13:54:12;120.10;;;112.40;;
16804;SDS011;8520;50.102;20.010;2023-09-19T13:56:41;120.05;;;112.35;;
16804;SDS011;8520;50.102;20.010;2023-09-19T13:59:09;120.55;;;112.68;;
16804;SDS011;8520;50.102;20.010;2023-09-19T14:01:37;120.20;;;112.53;;
16804;SDS011;8520;50.102;20.010;2023-09-19T14:04:06;120.00;;;112.43;;
16804;SDS011;8520;50.102;20.010;2023-09-19T14:06:34;119.82;;;112.30;;
16804;SDS011;8520;50.102;20.010;2023-09-19T14:09:04;120.57;;;112.88;;
16804;SDS011;8520;50.102;20.010;2023-09-19T14:11:33;121.53;;;113.72;;
16804;SDS011;8520;50.102;20.010;2023-09-19T14:14:01;122.32;;;114.40;;
16804;SDS011;8520;50.102;20.010;2023-09-19T14:16:31;124.38;;;116.22;;
16804;SDS011;8520;50.102;20.010;2023-09-19T14:19:00;123.47;;;115.50;;
16804;SDS011;8520;50.102;20.010;2023-09-19T14:21:28;124.45;;;116.43;;
16804;SDS011;8520;50.102;20.010;2023-09-19T14:23:56;122.70;;;114.85;;
16804;SDS011;8520;50.102;20.010;2023-09-19T14:26:24;120.82;;;113.22;;
16804;SDS011;8520;50.102;20.010;2023-09-19T14:28:53;122.97;;;114.90;;
16804;SDS011;8520;50.102;20.010;2023-09-19T14:31:21;126.90;;;118.63;;
16804;SDS011;8520;50.102;20.010;2023-09-19T14:33:53;122.70;;;114.70;;
16804;SDS011;8520;50.102;20.010;2023-09-19T14:36:21;119.10;;;111.63;;